createdAt,value
2018-05-08T00:02:22.114Z,2.20
2018-05-08T00:06:15.204Z,1.97
2018-05-08T00:10:08.321Z,1.97
2018-05-08T00:14:02.024Z,2.12
2018-05-08T00:17:56.524Z,2.05
2018-05-08T00:21:50.347Z,2.03
2018-05-08T00:25:43.485Z,2.10
2018-05-08T00:29:36.597Z,2.07
2018-05-08T00:33:29.744Z,2.40
2018-05-08T00:37:22.937Z,2.83
2018-05-08T00:41:16.074Z,2.63
2018-05-08T00:45:09.257Z,2.10
2018-05-08T00:49:03.205Z,2.50
2018-05-08T00:52:56.300Z,2.53
2018-05-08T00:56:49.198Z,2.40
2018-05-08T01:00:42.311Z,1.90
2018-05-08T01:04:36.307Z,1.60
2018-05-08T01:08:30.174Z,1.80
2018-05-08T01:12:23.288Z,1.90
2018-05-08T01:16:16.460Z,2.23
2018-05-08T01:20:09.584Z,2.20
2018-05-08T01:24:02.722Z,2.33
2018-05-08T01:27:55.851Z,2.40
2018-05-08T01:31:48.985Z,1.93
2018-05-08T01:35:42.262Z,1.98
2018-05-08T01:39:35.675Z,2.60
2018-05-08T01:43:28.845Z,2.77
2018-05-08T01:47:22.050Z,2.77
2018-05-08T01:51:15.279Z,2.80
2018-05-08T01:55:08.127Z,2.50
2018-05-08T01:59:01.391Z,2.87
2018-05-08T02:02:56.244Z,2.80
2018-05-08T02:06:49.451Z,2.60
2018-05-08T02:10:42.556Z,2.80
2018-05-08T02:14:36.521Z,2.40
2018-05-08T02:22:29.183Z,2.67
2018-05-08T02:26:22.349Z,3.00
2018-05-08T02:30:15.450Z,2.67
2018-05-08T02:34:08.586Z,3.40
2018-05-08T02:38:01.922Z,3.00
2018-05-08T02:41:55.029Z,3.30
2018-05-08T02:45:48.177Z,3.07
2018-05-08T02:49:41.311Z,3.00
2018-05-08T02:53:34.431Z,2.40
2018-05-08T02:57:28.156Z,2.90
2018-05-08T03:01:21.323Z,2.70
2018-05-08T03:05:14.457Z,2.17
2018-05-08T03:09:07.613Z,2.90
2018-05-08T03:13:01.528Z,2.93
2018-05-08T03:16:54.688Z,2.80
2018-05-08T03:20:47.785Z,2.90
2018-05-08T03:24:40.937Z,2.40
2018-05-08T03:28:34.055Z,3.47
2018-05-08T03:32:28.026Z,3.57
2018-05-08T03:36:21.137Z,3.03
2018-05-08T03:40:14.284Z,3.17
2018-05-08T03:44:07.475Z,3.00
2018-05-08T03:48:00.696Z,3.30
2018-05-08T03:51:54.612Z,3.00
2018-05-08T03:56:03.265Z,3.40
2018-05-08T03:59:56.512Z,3.40
2018-05-08T04:04:01.544Z,3.23
2018-05-08T04:08:06.601Z,3.73
2018-05-08T04:11:59.732Z,3.20
2018-05-08T04:15:52.854Z,3.47
2018-05-08T04:19:45.963Z,3.97
2018-05-08T04:23:39.185Z,3.83
2018-05-08T04:27:32.373Z,4.27
2018-05-08T04:31:26.308Z,3.40
2018-05-08T04:35:19.479Z,3.97
2018-05-08T04:39:12.592Z,3.33
2018-05-08T04:43:06.553Z,3.93
2018-05-08T04:46:59.665Z,2.97
2018-05-08T04:50:52.830Z,4.20
2018-05-08T04:54:45.780Z,4.00
2018-05-08T04:58:38.920Z,3.20
2018-05-08T05:02:32.213Z,3.90
2018-05-08T05:06:26.155Z,3.70
2018-05-08T05:10:19.514Z,3.30
2018-05-08T05:14:12.706Z,4.00
2018-05-08T05:18:05.907Z,4.00
2018-05-08T05:21:59.048Z,4.30
2018-05-08T05:25:53.017Z,3.87
2018-05-08T05:29:46.859Z,4.47
2018-05-08T05:33:40.990Z,4.63
2018-05-08T05:37:34.892Z,4.17
2018-05-08T05:41:28.054Z,5.03
2018-05-08T05:45:21.923Z,4.87
2018-05-08T05:49:15.841Z,4.73
2018-05-08T05:53:09.050Z,4.60
2018-05-08T05:57:01.971Z,4.50
2018-05-08T06:00:55.079Z,4.67
2018-05-08T06:04:48.309Z,5.40
2018-05-08T06:08:41.438Z,4.47
2018-05-08T06:12:34.569Z,4.60
2018-05-08T06:16:28.447Z,4.43
2018-05-08T06:20:21.659Z,4.57
2018-05-08T06:24:15.742Z,4.67
2018-05-08T06:28:09.635Z,4.70
2018-05-08T06:32:02.803Z,5.47
2018-05-08T06:35:55.926Z,5.07
2018-05-08T06:39:51.281Z,5.10
2018-05-08T06:43:44.432Z,4.50
2018-05-08T06:47:37.682Z,4.77
2018-05-08T06:51:31.599Z,4.40
2018-05-08T06:55:24.521Z,5.30
2018-05-08T06:59:18.511Z,5.20
2018-05-08T07:03:12.464Z,4.97
2018-05-08T07:07:05.897Z,3.97
2018-05-08T07:10:59.090Z,4.80
2018-05-08T07:14:52.303Z,4.50
2018-05-08T07:18:46.190Z,4.03
2018-05-08T07:22:40.164Z,4.47
2018-05-08T07:26:34.043Z,4.00
2018-05-08T07:30:27.204Z,4.30
2018-05-08T07:34:21.187Z,3.90
2018-05-08T07:38:15.193Z,3.83
2018-05-08T07:42:08.351Z,4.00
2018-05-08T07:46:02.669Z,3.60
2018-05-08T07:49:55.806Z,3.93
2018-05-08T07:53:48.932Z,3.20
2018-05-08T07:57:41.819Z,3.50
2018-05-08T08:01:35.799Z,3.10
2018-05-08T08:05:28.920Z,3.53
2018-05-08T08:09:22.013Z,3.40
2018-05-08T08:13:16.291Z,3.35
2018-05-08T08:17:11.153Z,2.80
2018-05-08T08:21:04.436Z,2.93
2018-05-08T08:24:57.777Z,3.13
2018-05-08T08:28:50.896Z,2.80
2018-05-08T08:32:44.173Z,2.83
2018-05-08T08:36:37.444Z,2.80
2018-05-08T08:40:30.778Z,2.30
2018-05-08T08:44:24.209Z,2.40
2018-05-08T08:48:18.125Z,2.30
2018-05-08T08:52:11.999Z,3.80
2018-05-08T08:56:04.855Z,2.20
2018-05-08T09:03:51.337Z,1.80
2018-05-08T09:07:44.754Z,2.43
2018-05-08T09:11:38.001Z,2.50
2018-05-08T09:15:31.292Z,2.30
2018-05-08T09:19:24.779Z,2.23
2018-05-08T09:23:17.938Z,2.10
2018-05-08T09:27:12.270Z,2.40
2018-05-08T09:31:06.381Z,2.87
2018-05-08T09:35:00.354Z,2.50
2018-05-08T09:38:54.534Z,2.27
2018-05-08T09:42:47.669Z,1.80
2018-05-08T09:46:40.891Z,1.73
2018-05-08T09:50:35.997Z,2.00
2018-05-08T09:54:29.752Z,2.30
2018-05-08T09:58:22.870Z,2.10
2018-05-08T10:02:16.000Z,1.50
2018-05-08T10:06:10.692Z,1.90
2018-05-08T10:10:03.799Z,2.03
2018-05-08T10:13:56.940Z,1.83
2018-05-08T10:17:50.120Z,1.73
2018-05-08T10:21:43.251Z,1.90
2018-05-08T10:25:36.406Z,2.30
2018-05-08T10:29:29.520Z,1.60
2018-05-08T10:33:22.683Z,1.57
2018-05-08T10:37:16.728Z,1.40
2018-05-08T10:41:10.609Z,1.57
2018-05-08T10:45:03.877Z,1.80
2018-05-08T10:48:56.991Z,2.10
2018-05-08T10:52:50.328Z,1.50
2018-05-08T10:56:46.224Z,1.40
2018-05-08T11:00:40.241Z,1.70
2018-05-08T11:04:34.171Z,2.63
2018-05-08T11:08:27.320Z,1.95
2018-05-08T11:12:20.426Z,1.67
2018-05-08T11:16:14.078Z,1.30
2018-05-08T11:20:06.804Z,1.57
2018-05-08T11:23:59.903Z,1.80
2018-05-08T11:27:53.353Z,1.20
2018-05-08T11:31:46.655Z,1.70
2018-05-08T11:35:39.911Z,1.93
2018-05-08T11:39:33.109Z,1.80
2018-05-08T11:43:26.381Z,1.40
2018-05-08T11:47:20.949Z,1.50
2018-05-08T11:51:14.056Z,2.00
2018-05-08T11:55:07.777Z,1.50
2018-05-08T11:59:00.975Z,1.70
2018-05-08T12:02:54.151Z,1.60
2018-05-08T12:06:48.067Z,1.87
2018-05-08T12:10:41.952Z,1.57
2018-05-08T12:14:35.271Z,2.00
2018-05-08T12:18:28.343Z,1.30
2018-05-08T12:22:22.269Z,1.30
2018-05-08T12:26:15.389Z,1.80
2018-05-08T12:30:08.550Z,1.73
2018-05-08T12:34:01.675Z,1.20
2018-05-08T12:37:54.860Z,1.40
2018-05-08T12:41:48.403Z,1.57
2018-05-08T12:45:43.117Z,1.90
2018-05-08T12:49:36.328Z,1.17
2018-05-08T12:53:30.254Z,1.20
2018-05-08T12:57:23.209Z,1.57
2018-05-08T13:01:16.414Z,1.87
2018-05-08T13:05:09.600Z,1.43
2018-05-08T13:09:02.705Z,2.10
2018-05-08T13:12:55.872Z,2.50
2018-05-08T13:16:49.090Z,1.40
2018-05-08T13:20:42.234Z,2.47
2018-05-08T13:24:35.350Z,1.55
2018-05-08T13:28:28.479Z,1.37
2018-05-08T13:32:21.605Z,2.67
2018-05-08T13:36:14.808Z,2.97
2018-05-08T13:40:08.787Z,1.30
2018-05-08T13:44:02.110Z,1.80
2018-05-08T13:47:55.235Z,2.43
2018-05-08T13:51:48.383Z,1.83
2018-05-08T13:55:42.093Z,3.00
2018-05-08T13:59:35.226Z,1.40
2018-05-08T14:03:28.349Z,1.77
2018-05-08T14:07:21.683Z,3.30
2018-05-08T14:11:14.904Z,4.30
2018-05-08T14:15:08.031Z,1.10
2018-05-08T14:19:01.196Z,1.23
2018-05-08T14:22:54.316Z,1.70
2018-05-08T14:26:48.271Z,1.50
2018-05-08T14:30:41.407Z,1.45
2018-05-08T14:34:34.512Z,1.50
2018-05-08T14:38:28.601Z,1.60
2018-05-08T14:42:21.792Z,1.60
2018-05-08T14:46:15.683Z,2.20
2018-05-08T14:50:08.801Z,1.80
2018-05-08T14:54:03.171Z,2.17
2018-05-08T14:57:56.087Z,1.70
2018-05-08T15:01:50.701Z,1.30
2018-05-08T15:05:43.894Z,1.30
2018-05-08T15:09:37.076Z,1.40
2018-05-08T15:13:31.303Z,1.50
2018-05-08T15:17:25.209Z,0.90
2018-05-08T15:21:18.504Z,1.43
2018-05-08T15:25:11.665Z,1.73
2018-05-08T15:29:05.232Z,1.10
2018-05-08T15:32:58.407Z,1.60
2018-05-08T15:36:51.480Z,1.30
2018-05-08T15:40:44.663Z,1.07
2018-05-08T15:44:37.787Z,4.57
2018-05-08T15:48:32.090Z,2.30
2018-05-08T15:52:25.243Z,1.23
2018-05-08T15:56:18.279Z,1.40
2018-05-08T16:00:11.403Z,1.43
2018-05-08T16:04:04.605Z,1.97
2018-05-08T16:07:58.488Z,2.43
2018-05-08T16:11:51.604Z,1.70
2018-05-08T16:15:44.791Z,1.53
2018-05-08T16:19:37.913Z,1.50
2018-05-08T16:23:31.240Z,1.97
2018-05-08T16:27:24.371Z,1.50
2018-05-08T16:31:17.556Z,1.60
2018-05-08T16:35:10.722Z,1.60
2018-05-08T16:39:03.945Z,1.80
2018-05-08T16:42:57.119Z,1.50
2018-05-08T16:46:50.301Z,2.00
2018-05-08T16:50:43.494Z,1.60
2018-05-08T16:54:36.617Z,1.70
2018-05-08T16:58:29.500Z,1.60
2018-05-08T17:02:23.129Z,2.00
2018-05-08T17:06:16.273Z,1.40
2018-05-08T17:10:10.157Z,1.90
2018-05-08T17:14:04.068Z,1.87
2018-05-08T17:17:57.287Z,1.57
2018-05-08T17:21:50.408Z,1.63
2018-05-08T17:25:43.601Z,1.60
2018-05-08T17:29:38.192Z,1.50
2018-05-08T17:33:31.465Z,1.40
2018-05-08T17:37:24.515Z,1.60
2018-05-08T17:41:17.682Z,1.50
2018-05-08T17:45:10.874Z,1.50
2018-05-08T17:49:04.029Z,1.60
2018-05-08T17:52:57.358Z,1.53
2018-05-08T17:56:50.317Z,1.85
2018-05-08T18:00:44.001Z,1.80
2018-05-08T18:04:37.124Z,2.20
2018-05-08T18:08:31.020Z,1.50
2018-05-08T18:12:24.198Z,2.00
2018-05-08T18:16:17.332Z,1.70
2018-05-08T18:20:10.502Z,2.10
2018-05-08T18:24:04.393Z,1.90
2018-05-08T18:27:57.536Z,1.83
2018-05-08T18:31:50.664Z,2.15
2018-05-08T18:35:43.886Z,2.00
2018-05-08T18:39:36.997Z,2.07
2018-05-08T18:43:30.142Z,1.90
2018-05-08T18:47:23.278Z,2.57
2018-05-08T18:51:16.460Z,2.90
2018-05-08T18:55:09.582Z,3.00
2018-05-08T18:59:02.585Z,2.60
2018-05-08T19:02:55.718Z,2.87
2018-05-08T19:06:49.746Z,2.43
2018-05-08T19:10:42.814Z,3.20
2018-05-08T19:14:35.985Z,2.43
2018-05-08T19:18:34.743Z,2.40
2018-05-08T19:22:28.772Z,2.00
2018-05-08T19:26:21.953Z,2.40
2018-05-08T19:30:20.576Z,2.00
2018-05-08T19:34:14.462Z,1.97
2018-05-08T19:38:13.144Z,2.10
2018-05-08T19:42:07.016Z,1.87
2018-05-08T19:46:00.923Z,2.75
2018-05-08T19:49:54.792Z,3.00
2018-05-08T19:53:48.766Z,2.87
2018-05-08T19:57:41.896Z,2.70
2018-05-08T20:01:35.854Z,2.93
2018-05-08T20:05:29.003Z,2.67
2018-05-08T20:09:22.121Z,3.17
2018-05-08T20:13:15.312Z,3.07
2018-05-08T20:17:08.495Z,2.90
2018-05-08T20:21:01.742Z,3.22
2018-05-08T20:24:54.893Z,2.83
2018-05-08T20:28:48.116Z,2.60
2018-05-08T20:32:41.490Z,2.73
2018-05-08T20:36:34.690Z,2.30
2018-05-08T20:40:27.888Z,2.50
2018-05-08T20:44:21.860Z,2.70
2018-05-08T20:48:15.778Z,2.50
2018-05-08T20:52:08.887Z,2.70
2018-05-08T20:56:01.786Z,2.42
2018-05-08T20:59:55.179Z,2.70
2018-05-08T21:03:49.205Z,2.30
2018-05-08T21:07:42.647Z,2.17
2018-05-08T21:11:35.871Z,2.27
2018-05-08T21:15:28.928Z,2.03
2018-05-08T21:19:22.822Z,1.70
2018-05-08T21:23:15.934Z,1.93
2018-05-08T21:27:09.112Z,2.03
2018-05-08T21:31:07.889Z,1.77
2018-05-08T21:35:01.081Z,1.90
2018-05-08T21:38:54.188Z,1.90
2018-05-08T21:42:47.312Z,1.50
2018-05-08T21:46:40.461Z,2.07
2018-05-08T21:50:33.547Z,1.63
2018-05-08T21:54:27.444Z,1.70
2018-05-08T21:58:20.684Z,1.90
2018-05-08T22:02:13.803Z,1.77
2018-05-08T22:06:06.907Z,1.87
2018-05-08T22:10:00.327Z,1.58
2018-05-08T22:14:02.879Z,1.57
2018-05-08T22:17:56.078Z,1.70
2018-05-08T22:21:50.575Z,2.07
2018-05-08T22:25:43.725Z,1.90
2018-05-08T22:29:36.830Z,2.00
2018-05-08T22:33:29.951Z,2.27
2018-05-08T22:37:23.142Z,1.73
2018-05-08T22:41:16.310Z,2.20
2018-05-08T22:45:09.418Z,2.37
2018-05-08T22:49:02.555Z,2.10
2018-05-08T22:52:55.675Z,2.10
2018-05-08T22:56:48.817Z,1.70
2018-05-08T23:00:41.729Z,1.80
2018-05-08T23:04:34.843Z,1.70
2018-05-08T23:08:28.749Z,1.70
2018-05-08T23:12:21.867Z,1.53
2018-05-08T23:16:14.981Z,1.63
2018-05-08T23:20:10.213Z,1.87
2018-05-08T23:24:03.610Z,1.90
2018-05-08T23:27:56.717Z,1.90
2018-05-08T23:31:49.853Z,2.10
2018-05-08T23:35:42.993Z,1.97
2018-05-08T23:39:36.067Z,2.03
2018-05-08T23:43:29.285Z,1.77
2018-05-08T23:47:22.408Z,2.10
2018-05-08T23:51:15.573Z,2.43
2018-05-08T23:55:08.707Z,2.00
2018-05-08T23:59:01.590Z,2.12
